createdAt,value
2023-04-01T00:01:57.917Z,10.95
2023-04-01T00:04:24.119Z,9.59
2023-04-01T00:06:51.905Z,11.00
2023-04-01T00:09:18.263Z,9.34
2023-04-01T00:11:45.685Z,11.27
2023-04-01T00:14:11.953Z,11.22
2023-04-01T00:16:38.092Z,9.13
2023-04-01T00:19:04.306Z,11.27
2023-04-01T00:21:30.682Z,9.98
2023-04-01T00:23:56.778Z,11.05
2023-04-01T00:26:23.187Z,10.87
2023-04-01T00:28:49.960Z,11.46
2023-04-01T00:31:16.117Z,10.77
2023-04-01T00:33:42.310Z,11.08
2023-04-01T00:36:13.162Z,11.06
2023-04-01T00:38:39.329Z,10.96
2023-04-01T00:41:05.919Z,10.46
2023-04-01T00:43:32.128Z,10.75
2023-04-01T00:45:58.220Z,10.75
2023-04-01T00:48:29.193Z,9.21
2023-04-01T00:51:00.124Z,9.31
2023-04-01T00:53:26.330Z,9.13
2023-04-01T00:56:27.048Z,11.17
2023-04-01T00:59:02.756Z,10.95
2023-04-01T01:01:30.181Z,11.05
2023-04-01T01:03:56.333Z,11.07
2023-04-01T01:06:31.649Z,11.18
2023-04-01T01:09:04.232Z,11.48
2023-04-01T01:11:55.507Z,10.25
2023-04-01T01:14:36.491Z,10.82
2023-04-01T01:17:10.466Z,11.00
2023-04-01T01:20:25.229Z,10.94
2023-04-01T01:22:58.019Z,10.92
2023-04-01T01:25:45.573Z,11.33
2023-04-01T01:28:45.668Z,10.79
2023-04-01T01:31:17.958Z,10.46
2023-04-01T01:34:28.628Z,10.92
2023-04-01T01:36:58.499Z,10.82
2023-04-01T01:39:28.239Z,10.68
2023-04-01T01:41:56.564Z,10.78
2023-04-01T01:44:22.746Z,10.59
2023-04-01T01:46:49.280Z,10.73
2023-04-01T01:49:16.774Z,10.90
2023-04-01T01:51:43.442Z,10.61
2023-04-01T01:54:17.127Z,10.66
2023-04-01T01:56:45.823Z,10.67
2023-04-01T01:59:12.309Z,10.77
2023-04-01T02:01:43.222Z,10.90
2023-04-01T02:04:10.721Z,11.04
2023-04-01T02:06:39.116Z,11.18
2023-04-01T02:09:07.161Z,10.94
2023-04-01T02:11:55.901Z,10.97
2023-04-01T02:14:44.970Z,10.54
2023-04-01T02:17:17.413Z,10.46
2023-04-01T02:19:59.415Z,10.72
2023-04-01T02:22:31.763Z,10.09
2023-04-01T02:25:01.034Z,10.71
2023-04-01T02:27:27.394Z,10.80
2023-04-01T02:29:53.534Z,10.49
2023-04-01T02:32:20.591Z,10.93
2023-04-01T02:34:47.667Z,10.86
2023-04-01T02:37:14.620Z,10.39
2023-04-01T02:39:40.809Z,11.10
2023-04-01T02:42:06.896Z,10.50
2023-04-01T02:44:32.990Z,10.70
2023-04-01T02:46:59.192Z,10.93
2023-04-01T02:49:25.296Z,9.77
2023-04-01T02:51:52.179Z,10.70
2023-04-01T02:54:19.080Z,10.65
2023-04-01T02:56:45.877Z,10.08
2023-04-01T02:59:12.107Z,9.92
2023-04-01T03:01:38.789Z,9.21
2023-04-01T03:04:05.093Z,10.54
2023-04-01T03:06:31.142Z,10.34
2023-04-01T03:08:57.305Z,10.81
2023-04-01T03:11:23.509Z,10.22
2023-04-01T03:13:49.692Z,10.48
2023-04-01T03:16:15.868Z,10.78
2023-04-01T03:18:41.993Z,10.28
2023-04-01T03:21:22.346Z,10.74
2023-04-01T03:23:48.648Z,10.39
2023-04-01T03:26:15.341Z,10.81
2023-04-01T03:28:41.600Z,10.85
2023-04-01T03:31:07.867Z,10.65
2023-04-01T03:33:34.131Z,8.83
2023-04-01T03:36:00.291Z,10.82
2023-04-01T03:38:26.484Z,10.03
2023-04-01T03:40:52.563Z,10.74
2023-04-01T03:43:18.617Z,10.82
2023-04-01T03:45:46.389Z,10.84
2023-04-01T03:48:12.681Z,10.60
2023-04-01T03:50:38.786Z,10.88
2023-04-01T03:53:04.929Z,10.95
2023-04-01T03:55:31.288Z,10.71
2023-04-01T03:57:57.650Z,10.64
2023-04-01T04:00:23.772Z,8.91
2023-04-01T04:02:49.979Z,9.94
2023-04-01T04:05:16.103Z,10.89
2023-04-01T04:07:42.265Z,10.78
2023-04-01T04:10:08.633Z,10.19
2023-04-01T04:12:34.847Z,10.83
2023-04-01T04:15:00.921Z,10.69
2023-04-01T04:17:27.018Z,10.44
2023-04-01T04:19:53.155Z,10.71
2023-04-01T04:22:19.261Z,10.54
2023-04-01T04:24:45.363Z,10.53
2023-04-01T04:27:11.444Z,10.70
2023-04-01T04:29:37.520Z,10.84
2023-04-01T04:32:03.736Z,10.69
2023-04-01T04:34:29.898Z,10.70
2023-04-01T04:36:55.961Z,10.72
2023-04-01T04:39:22.046Z,10.96
2023-04-01T04:41:48.155Z,10.59
2023-04-01T04:44:14.233Z,10.87
2023-04-01T04:46:40.526Z,10.71
2023-04-01T04:49:06.902Z,10.78
2023-04-01T04:51:36.248Z,10.79
2023-04-01T04:54:03.594Z,10.75
2023-04-01T04:56:31.017Z,10.52
2023-04-01T04:58:57.462Z,10.81
2023-04-01T05:01:23.654Z,10.93
2023-04-01T05:03:50.093Z,10.74
2023-04-01T05:06:16.843Z,9.99
2023-04-01T05:08:44.065Z,9.62
2023-04-01T05:11:14.018Z,10.45
2023-04-01T05:13:40.495Z,10.94
2023-04-01T05:16:11.290Z,10.73
2023-04-01T05:18:37.443Z,10.52
2023-04-01T05:21:03.851Z,10.42
2023-04-01T05:23:31.996Z,10.60
2023-04-01T05:25:58.125Z,10.16
2023-04-01T05:28:24.273Z,10.39
2023-04-01T05:30:50.889Z,8.84
2023-04-01T05:33:17.074Z,10.62
2023-04-01T05:35:43.250Z,9.60
2023-04-01T05:38:09.457Z,10.61
2023-04-01T05:40:35.606Z,10.08
2023-04-01T05:43:01.832Z,10.87
2023-04-01T05:45:27.983Z,8.58
2023-04-01T05:47:54.281Z,10.53
2023-04-01T05:50:20.393Z,10.68
2023-04-01T05:52:46.493Z,10.27
2023-04-01T05:55:12.627Z,10.94
2023-04-01T05:57:38.745Z,10.05
2023-04-01T06:00:05.721Z,9.10
2023-04-01T06:02:32.037Z,10.59
2023-04-01T06:05:24.580Z,10.65
2023-04-01T06:08:01.018Z,8.78
2023-04-01T06:10:50.183Z,10.84
2023-04-01T06:13:53.980Z,10.44
2023-04-01T06:16:30.390Z,10.57
2023-04-01T06:19:18.282Z,6.09
2023-04-01T06:22:03.615Z,10.41
2023-04-01T06:24:44.561Z,10.43
2023-04-01T06:27:10.618Z,10.43
2023-04-01T06:29:51.245Z,10.75
2023-04-01T06:32:48.886Z,10.74
2023-04-01T06:35:21.642Z,10.71
2023-04-01T06:37:50.627Z,10.71
2023-04-01T06:40:44.667Z,10.35
2023-04-01T06:43:15.978Z,10.54
2023-04-01T06:46:19.829Z,10.50
2023-04-01T06:49:18.189Z,10.43
2023-04-01T06:51:59.690Z,10.70
2023-04-01T06:54:41.212Z,10.61
2023-04-01T06:57:22.601Z,10.80
2023-04-01T06:59:49.224Z,10.00
2023-04-01T07:02:39.076Z,10.80
2023-04-01T07:05:05.854Z,9.22
2023-04-01T07:07:48.714Z,9.17
2023-04-01T07:10:18.501Z,10.87
2023-04-01T07:12:50.585Z,6.23
2023-04-01T07:15:19.174Z,10.31
2023-04-01T07:17:46.923Z,10.67
2023-04-01T07:20:26.665Z,10.76
2023-04-01T07:22:55.405Z,10.89
2023-04-01T07:25:42.805Z,11.03
2023-04-01T07:28:19.200Z,10.75
2023-04-01T07:31:09.675Z,10.45
2023-04-01T07:33:59.062Z,10.93
2023-04-01T07:36:34.654Z,10.55
2023-04-01T07:39:06.663Z,10.72
2023-04-01T07:41:45.050Z,10.85
2023-04-01T07:44:34.044Z,10.14
2023-04-01T07:47:21.252Z,10.93
2023-04-01T07:50:21.636Z,10.63
2023-04-01T07:53:09.236Z,11.35
2023-04-01T07:56:04.605Z,10.64
2023-04-01T07:58:39.584Z,10.76
2023-04-01T08:01:14.444Z,11.04
2023-04-01T08:03:55.791Z,11.32
2023-04-01T08:06:31.390Z,11.39
2023-04-01T08:09:03.153Z,11.36
2023-04-01T08:11:45.179Z,10.49
2023-04-01T08:14:27.031Z,10.85
2023-04-01T08:16:58.693Z,11.40
2023-04-01T08:19:56.640Z,11.07
2023-04-01T08:22:28.375Z,10.76
2023-04-01T08:24:57.698Z,11.43
2023-04-01T08:27:29.859Z,10.54
2023-04-01T08:30:17.408Z,11.19
2023-04-01T08:33:06.106Z,11.39
2023-04-01T08:35:44.135Z,10.77
2023-04-01T08:38:32.598Z,11.38
2023-04-01T08:41:00.191Z,11.38
2023-04-01T08:43:57.040Z,11.45
2023-04-01T08:46:36.007Z,11.36
2023-04-01T08:49:14.039Z,11.15
2023-04-01T08:51:59.193Z,11.12
2023-04-01T08:54:31.414Z,11.03
2023-04-01T08:57:06.776Z,11.30
2023-04-01T08:59:38.893Z,11.57
2023-04-01T09:02:20.430Z,11.00
2023-04-01T09:04:53.934Z,11.56
2023-04-01T09:07:33.405Z,6.29
2023-04-01T09:10:16.226Z,11.18
2023-04-01T09:12:48.228Z,11.72
2023-04-01T09:15:32.987Z,11.30
2023-04-01T09:18:17.769Z,11.52
2023-04-01T09:21:09.489Z,11.79
2023-04-01T09:24:13.271Z,11.61
2023-04-01T09:27:02.837Z,11.94
2023-04-01T09:29:48.250Z,11.34
2023-04-01T09:32:20.081Z,11.73
2023-04-01T09:35:08.050Z,11.94
2023-04-01T09:37:47.363Z,11.84
2023-04-01T09:40:22.594Z,11.75
2023-04-01T09:43:17.710Z,11.86
2023-04-01T09:46:17.951Z,11.85
2023-04-01T09:49:02.720Z,11.93
2023-04-01T09:51:59.607Z,12.02
2023-04-01T09:54:34.819Z,11.89
2023-04-01T09:57:38.136Z,12.10
2023-04-01T10:00:19.552Z,11.98
2023-04-01T10:03:11.046Z,12.35
2023-04-01T10:05:40.441Z,12.29
2023-04-01T10:08:32.311Z,11.96
2023-04-01T10:11:22.914Z,11.92
2023-04-01T10:13:48.960Z,11.99
2023-04-01T10:16:40.190Z,11.93
2023-04-01T10:19:25.012Z,11.84
2023-04-01T10:21:52.315Z,11.75
2023-04-01T10:25:22.783Z,11.72
2023-04-01T10:28:23.590Z,11.94
2023-04-01T10:31:03.180Z,11.82
2023-04-01T10:34:06.850Z,11.90
2023-04-01T10:36:54.719Z,12.15
2023-04-01T10:39:34.228Z,12.06
2023-04-01T10:42:06.161Z,12.04
2023-04-01T10:45:08.139Z,12.10
2023-04-01T10:48:09.700Z,11.28
2023-04-01T10:51:12.956Z,11.75
2023-04-01T10:54:00.929Z,11.81
2023-04-01T10:56:38.921Z,12.05
2023-04-01T10:59:42.714Z,12.38
2023-04-01T11:02:30.805Z,12.74
2023-04-01T11:05:20.888Z,12.57
2023-04-01T11:08:18.399Z,12.83
2023-04-01T11:10:59.765Z,12.57
2023-04-01T11:13:48.670Z,12.40
2023-04-01T11:16:30.047Z,12.27
2023-04-01T11:19:26.330Z,12.52
2023-04-01T11:22:09.738Z,12.50
2023-04-01T11:24:38.900Z,12.95
2023-04-01T11:27:21.244Z,12.90
2023-04-01T11:30:05.103Z,12.46
2023-04-01T11:32:50.226Z,12.68
2023-04-01T11:35:28.704Z,13.54
2023-04-01T11:38:19.160Z,14.11
2023-04-01T11:40:48.817Z,13.88
2023-04-01T11:43:32.929Z,12.77
2023-04-01T11:46:11.288Z,12.62
2023-04-01T11:48:56.596Z,11.70
2023-04-01T11:51:31.854Z,12.64
2023-04-01T11:54:24.205Z,13.04
2023-04-01T11:56:59.497Z,13.10
2023-04-01T11:59:43.056Z,12.77
2023-04-01T12:02:28.998Z,12.53
2023-04-01T12:05:24.474Z,12.46
2023-04-01T12:07:59.204Z,12.10
2023-04-01T12:10:41.104Z,12.71
2023-04-01T12:13:32.325Z,12.94
2023-04-01T12:16:12.232Z,10.96
2023-04-01T12:18:56.867Z,12.48
2023-04-01T12:21:36.194Z,12.78
2023-04-01T12:24:21.458Z,12.83
2023-04-01T12:26:47.514Z,12.89
2023-04-01T12:29:38.016Z,12.61
2023-04-01T12:32:25.980Z,12.41
2023-04-01T12:35:02.607Z,12.74
2023-04-01T12:37:54.942Z,12.77
2023-04-01T12:40:29.082Z,12.79
2023-04-01T12:43:20.464Z,12.62
2023-04-01T12:46:09.011Z,12.68
2023-04-01T12:49:00.984Z,12.81
2023-04-01T12:51:55.127Z,12.55
2023-04-01T12:55:05.946Z,12.66
2023-04-01T12:57:48.689Z,12.52
2023-04-01T13:00:46.323Z,12.59
2023-04-01T13:03:28.958Z,8.54
2023-04-01T13:06:41.596Z,12.96
2023-04-01T13:09:18.988Z,12.86
2023-04-01T13:12:17.444Z,13.07
2023-04-01T13:15:06.138Z,13.09
2023-04-01T13:17:41.708Z,13.03
2023-04-01T13:20:10.837Z,12.93
2023-04-01T13:22:55.306Z,13.07
2023-04-01T13:25:25.114Z,12.60
2023-04-01T13:28:27.651Z,12.98
2023-04-01T13:31:03.467Z,13.08
2023-04-01T13:33:38.949Z,12.94
2023-04-01T13:36:26.602Z,13.21
2023-04-01T13:39:07.560Z,12.60
2023-04-01T13:41:43.346Z,12.58
2023-04-01T13:44:25.073Z,11.90
2023-04-01T13:47:22.655Z,13.01
2023-04-01T13:50:16.775Z,12.89
2023-04-01T13:53:05.723Z,12.69
2023-04-01T13:55:35.799Z,12.68
2023-04-01T13:58:17.982Z,12.62
2023-04-01T14:01:05.323Z,12.57
2023-04-01T14:04:18.583Z,12.73
2023-04-01T14:07:00.114Z,12.42
2023-04-01T14:09:33.069Z,12.17
2023-04-01T14:12:17.413Z,12.29
2023-04-01T14:15:10.335Z,12.66
2023-04-01T14:17:53.935Z,12.50
2023-04-01T14:20:34.252Z,12.78
2023-04-01T14:23:33.054Z,12.31
2023-04-01T14:26:28.126Z,12.87
2023-04-01T14:29:36.064Z,13.16
2023-04-01T14:32:15.294Z,13.10
2023-04-01T14:35:02.291Z,13.44
2023-04-01T14:37:49.280Z,12.88
2023-04-01T14:40:42.585Z,12.96
2023-04-01T14:43:42.866Z,13.33
2023-04-01T14:46:23.328Z,13.50
2023-04-01T14:48:58.514Z,13.28
2023-04-01T14:51:38.821Z,12.66
2023-04-01T14:54:23.104Z,13.08
2023-04-01T14:57:27.041Z,13.56
2023-04-01T15:00:14.238Z,12.96
2023-04-01T15:02:52.602Z,13.48
2023-04-01T15:05:23.975Z,13.15
2023-04-01T15:08:12.828Z,13.36
2023-04-01T15:11:07.651Z,13.33
2023-04-01T15:14:13.642Z,13.11
2023-04-01T15:16:54.083Z,13.23
2023-04-01T15:19:42.293Z,13.34
2023-04-01T15:22:34.204Z,13.39
2023-04-01T15:25:05.485Z,13.16
2023-04-01T15:27:43.152Z,13.31
2023-04-01T15:30:15.424Z,13.36
2023-04-01T15:32:52.040Z,11.96
2023-04-01T15:35:47.325Z,13.44
2023-04-01T15:38:38.930Z,13.23
2023-04-01T15:41:57.669Z,13.16
2023-04-01T15:44:47.598Z,13.22
2023-04-01T15:47:46.486Z,13.54
2023-04-01T15:53:40.692Z,13.34
2023-04-01T15:56:31.117Z,13.35
2023-04-01T15:59:54.987Z,13.46
2023-04-01T16:02:36.192Z,13.73
2023-04-01T16:05:39.721Z,13.77
2023-04-01T16:08:22.521Z,13.84
2023-04-01T16:10:52.189Z,13.72
2023-04-01T16:13:43.219Z,13.66
2023-04-01T16:16:20.313Z,13.47
2023-04-01T16:19:04.054Z,13.44
2023-04-01T16:21:44.518Z,13.19
2023-04-01T16:24:34.933Z,13.62
2023-04-01T16:27:27.130Z,13.71
2023-04-01T16:30:20.430Z,13.13
2023-04-01T16:33:10.844Z,13.67
2023-04-01T16:36:00.899Z,11.77
2023-04-01T16:38:37.823Z,13.78
2023-04-01T16:41:16.971Z,12.54
2023-04-01T16:44:08.956Z,13.54
2023-04-01T16:47:09.675Z,13.68
2023-04-01T16:49:42.991Z,13.59
2023-04-01T16:52:17.218Z,13.10
2023-04-01T16:55:00.140Z,13.61
2023-04-01T16:57:38.342Z,13.41
2023-04-01T17:00:24.784Z,13.19
2023-04-01T17:03:04.516Z,12.89
2023-04-01T17:05:42.874Z,13.24
2023-04-01T17:08:39.578Z,13.26
2023-04-01T17:11:19.129Z,12.03
2023-04-01T17:14:10.839Z,13.55
2023-04-01T17:16:45.245Z,13.34
2023-04-01T17:19:37.902Z,13.34
2023-04-01T17:22:14.725Z,13.49
2023-04-01T17:25:17.296Z,13.46
2023-04-01T17:28:23.182Z,13.42
2023-04-01T17:31:18.772Z,13.45
2023-04-01T17:34:27.616Z,13.50
2023-04-01T17:36:58.566Z,13.48
2023-04-01T17:40:01.346Z,13.23
2023-04-01T17:42:44.308Z,13.39
2023-04-01T17:45:31.007Z,13.47
2023-04-01T17:48:15.000Z,13.09
2023-04-01T17:51:10.107Z,13.64
2023-04-01T17:53:57.006Z,13.64
2023-04-01T17:56:55.100Z,12.18
2023-04-01T17:59:32.228Z,13.11
2023-04-01T18:02:25.135Z,12.22
2023-04-01T18:05:11.522Z,13.35
2023-04-01T18:07:52.724Z,13.47
2023-04-01T18:10:47.534Z,13.46
2023-04-01T18:13:32.955Z,13.42
2023-04-01T18:16:45.688Z,10.97
2023-04-01T18:20:13.666Z,9.45
2023-04-01T18:23:17.616Z,13.45
2023-04-01T18:26:04.900Z,13.54
2023-04-01T18:29:14.204Z,13.52
2023-04-01T18:32:27.667Z,13.41
2023-04-01T18:35:42.932Z,13.39
2023-04-01T18:38:32.206Z,13.36
2023-04-01T18:41:33.637Z,13.42
2023-04-01T18:44:36.761Z,13.41
2023-04-01T18:47:47.232Z,13.48
2023-04-01T18:50:55.762Z,13.45
2023-04-01T18:53:58.006Z,13.46
2023-04-01T18:56:45.048Z,11.86
2023-04-01T18:59:22.700Z,13.42
2023-04-01T19:02:20.935Z,12.90
2023-04-01T19:05:19.172Z,12.75
2023-04-01T19:08:32.082Z,12.81
2023-04-01T19:11:27.530Z,12.56
2023-04-01T19:14:22.899Z,12.28
2023-04-01T19:17:05.711Z,12.47
2023-04-01T19:19:51.801Z,12.88
2023-04-01T19:22:23.878Z,13.02
2023-04-01T19:25:10.835Z,13.09
2023-04-01T19:27:51.099Z,13.10
2023-04-01T19:30:25.040Z,12.83
2023-04-01T19:33:36.440Z,12.63
2023-04-01T19:36:16.967Z,12.42
2023-04-01T19:39:30.032Z,12.88
2023-04-01T19:42:19.358Z,12.60
2023-04-01T19:45:08.849Z,12.56
2023-04-01T19:48:09.128Z,12.47
2023-04-01T19:51:17.023Z,12.65
2023-04-01T19:54:02.198Z,12.25
2023-04-01T19:56:46.554Z,12.57
2023-04-01T19:59:43.552Z,12.51
2023-04-01T20:02:17.106Z,12.90
2023-04-01T20:04:56.646Z,12.43
2023-04-01T20:07:38.244Z,12.55
2023-04-01T20:10:11.317Z,12.99
2023-04-01T20:12:59.621Z,13.06
2023-04-01T20:15:33.324Z,12.79
2023-04-01T20:18:27.844Z,12.97
2023-04-01T20:21:05.933Z,12.72
2023-04-01T20:23:51.957Z,13.05
2023-04-01T20:26:30.255Z,13.10
2023-04-01T20:29:37.343Z,12.99
2023-04-01T20:32:31.677Z,12.99
2023-04-01T20:35:06.252Z,12.65
2023-04-01T20:37:43.830Z,12.41
2023-04-01T20:40:27.527Z,12.38
2023-04-01T20:43:07.777Z,12.77
2023-04-01T20:45:44.146Z,12.66
2023-04-01T20:48:27.248Z,12.97
2023-04-01T20:51:15.166Z,11.34
2023-04-01T20:53:58.044Z,12.96
2023-04-01T20:56:36.736Z,13.07
2023-04-01T20:59:42.872Z,13.08
2023-04-01T21:02:17.029Z,13.01
2023-04-01T21:05:13.679Z,13.10
2023-04-01T21:07:54.817Z,13.06
2023-04-01T21:10:46.566Z,13.18
2023-04-01T21:13:52.124Z,13.16
2023-04-01T21:16:26.226Z,13.11
2023-04-01T21:19:03.518Z,13.06
2023-04-01T21:21:47.656Z,12.92
2023-04-01T21:24:13.849Z,12.73
2023-04-01T21:27:20.198Z,13.04
2023-04-01T21:29:56.565Z,13.07
2023-04-01T21:32:40.788Z,13.14
2023-04-01T21:35:31.376Z,13.28
2023-04-01T21:38:24.129Z,13.21
2023-04-01T21:41:07.046Z,12.85
2023-04-01T21:43:40.979Z,11.86
2023-04-01T21:46:33.004Z,11.62
2023-04-01T21:49:25.328Z,11.04
2023-04-01T21:52:16.108Z,10.99
2023-04-01T21:55:09.622Z,11.03
2023-04-01T21:58:11.679Z,10.64
2023-04-01T22:01:11.131Z,10.78
2023-04-01T22:03:48.742Z,10.81
2023-04-01T22:06:19.382Z,10.57
2023-04-01T22:09:03.696Z,10.60
2023-04-01T22:12:06.616Z,10.39
2023-04-01T22:14:42.620Z,10.54
2023-04-01T22:17:37.788Z,10.01
2023-04-01T22:20:12.020Z,10.10
2023-04-01T22:23:09.099Z,10.64
2023-04-01T22:25:50.893Z,9.95
2023-04-01T22:28:28.207Z,11.06
2023-04-01T22:31:02.975Z,10.89
2023-04-01T22:34:12.158Z,10.31
2023-04-01T22:36:52.920Z,10.16
2023-04-01T22:39:23.986Z,9.88
2023-04-01T22:42:05.600Z,10.30
2023-04-01T22:44:38.997Z,9.82
2023-04-01T22:47:15.371Z,9.16
2023-04-01T22:49:58.575Z,9.91
2023-04-01T22:52:39.543Z,10.40
2023-04-01T22:55:15.810Z,9.84
2023-04-01T22:57:50.986Z,10.02
2023-04-01T23:00:28.564Z,8.33
2023-04-01T23:03:26.962Z,9.64
2023-04-01T23:06:00.386Z,9.47
2023-04-01T23:08:54.166Z,10.01
2023-04-01T23:11:30.485Z,10.04
2023-04-01T23:14:04.361Z,10.56
2023-04-01T23:16:41.684Z,10.30
2023-04-01T23:19:29.821Z,9.50
2023-04-01T23:22:29.194Z,7.69
2023-04-01T23:25:25.444Z,9.47
2023-04-01T23:28:14.766Z,9.18
2023-04-01T23:30:45.299Z,9.17
2023-04-01T23:33:18.965Z,9.65
2023-04-01T23:36:05.416Z,9.56
2023-04-01T23:38:42.378Z,9.42
2023-04-01T23:41:22.715Z,10.34
2023-04-01T23:44:06.165Z,9.42
2023-04-01T23:46:37.786Z,9.48
2023-04-01T23:49:15.232Z,9.46
2023-04-01T23:51:57.258Z,9.91
2023-04-01T23:54:40.247Z,9.57
2023-04-01T23:57:12.670Z,9.42
2023-04-01T23:59:43.578Z,9.23
